sensor_id;sensor_type;location;lat;lon;timestamp;P1;durP1;ratioP1;P2;durP2;ratioP2
12202;SDS011;6164;42.178;24.622;2023-11-19T00:37:15;1.60;;;1.42;;
12202;SDS011;6164;42.178;24.622;2023-11-19T00:39:42;1.30;;;1.20;;
12202;SDS011;6164;42.178;24.622;2023-11-19T00:42:12;1.85;;;1.20;;
12202;SDS011;6164;42.178;24.622;2023-11-19T00:44:39;2.53;;;1.42;;
12202;SDS011;6164;42.178;24.622;2023-11-19T00:47:07;1.42;;;1.33;;
12202;SDS011;6164;42.178;24.622;2023-11-19T00:49:34;1.30;;;1.20;;
12202;SDS011;6164;42.178;24.622;2023-11-19T00:52:01;1.50;;;1.33;;
12202;SDS011;6164;42.178;24.622;2023-11-19T00:54:28;1.35;;;1.23;;
12202;SDS011;6164;42.178;24.622;2023-11-19T00:56:55;1.33;;;1.23;;
12202;SDS011;6164;42.178;24.622;2023-11-19T00:59:24;1.65;;;1.48;;
12202;SDS011;6164;42.178;24.622;2023-11-19T01:01:50;1.92;;;1.10;;
12202;SDS011;6164;42.178;24.622;2023-11-19T01:04:17;1.30;;;1.20;;
12202;SDS011;6164;42.178;24.622;2023-11-19T01:06:44;1.60;;;1.50;;
12202;SDS011;6164;42.178;24.622;2023-11-19T01:09:11;1.42;;;1.27;;
12202;SDS011;6164;42.178;24.622;2023-11-19T01:11:38;1.42;;;1.33;;
12202;SDS011;6164;42.178;24.622;2023-11-19T01:14:05;1.80;;;1.48;;
12202;SDS011;6164;42.178;24.622;2023-11-19T01:16:33;1.65;;;1.40;;
12202;SDS011;6164;42.178;24.622;2023-11-19T01:19:00;1.50;;;1.40;;
12202;SDS011;6164;42.178;24.622;2023-11-19T01:21:29;2.85;;;1.38;;
12202;SDS011;6164;42.178;24.622;2023-11-19T01:23:56;1.88;;;1.42;;
12202;SDS011;6164;42.178;24.622;2023-11-19T01:26:24;1.60;;;1.33;;
12202;SDS011;6164;42.178;24.622;2023-11-19T01:28:51;1.27;;;1.17;;
12202;SDS011;6164;42.178;24.622;2023-11-19T01:31:18;1.55;;;1.30;;
12202;SDS011;6164;42.178;24.622;2023-11-19T01:33:46;1.48;;;1.30;;
12202;SDS011;6164;42.178;24.622;2023-11-19T01:36:13;1.63;;;1.50;;
12202;SDS011;6164;42.178;24.622;2023-11-19T01:38:40;2.10;;;1.80;;
12202;SDS011;6164;42.178;24.622;2023-11-19T01:41:07;2.08;;;1.45;;
12202;SDS011;6164;42.178;24.622;2023-11-19T01:43:34;1.83;;;1.65;;
12202;SDS011;6164;42.178;24.622;2023-11-19T01:46:01;2.50;;;1.88;;
12202;SDS011;6164;42.178;24.622;2023-11-19T01:48:29;1.67;;;1.45;;
12202;SDS011;6164;42.178;24.622;2023-11-19T01:50:59;1.75;;;1.48;;
12202;SDS011;6164;42.178;24.622;2023-11-19T01:53:27;1.92;;;1.40;;
12202;SDS011;6164;42.178;24.622;2023-11-19T01:55:55;1.40;;;1.30;;
12202;SDS011;6164;42.178;24.622;2023-11-19T01:58:23;1.85;;;1.63;;
12202;SDS011;6164;42.178;24.622;2023-11-19T02:00:51;3.47;;;2.30;;
12202;SDS011;6164;42.178;24.622;2023-11-19T02:03:18;9.98;;;7.05;;
12202;SDS011;6164;42.178;24.622;2023-11-19T02:05:47;1.73;;;1.55;;
12202;SDS011;6164;42.178;24.622;2023-11-19T02:08:17;1.90;;;1.80;;
12202;SDS011;6164;42.178;24.622;2023-11-19T02:10:44;1.77;;;1.67;;
12202;SDS011;6164;42.178;24.622;2023-11-19T02:13:11;2.45;;;1.90;;
12202;SDS011;6164;42.178;24.622;2023-11-19T02:15:39;1.80;;;1.55;;
12202;SDS011;6164;42.178;24.622;2023-11-19T02:18:19;2.67;;;1.90;;
12202;SDS011;6164;42.178;24.622;2023-11-19T02:20:48;1.70;;;1.38;;
12202;SDS011;6164;42.178;24.622;2023-11-19T02:23:16;1.73;;;1.60;;
12202;SDS011;6164;42.178;24.622;2023-11-19T02:25:46;1.88;;;1.60;;
12202;SDS011;6164;42.178;24.622;2023-11-19T02:28:18;1.92;;;1.63;;
12202;SDS011;6164;42.178;24.622;2023-11-19T02:30:45;1.60;;;1.50;;
12202;SDS011;6164;42.178;24.622;2023-11-19T02:33:12;2.88;;;1.90;;
12202;SDS011;6164;42.178;24.622;2023-11-19T02:35:40;2.17;;;1.88;;
12202;SDS011;6164;42.178;24.622;2023-11-19T02:38:07;2.03;;;1.63;;
12202;SDS011;6164;42.178;24.622;2023-11-19T02:40:34;1.60;;;1.50;;
12202;SDS011;6164;42.178;24.622;2023-11-19T02:43:01;2.88;;;2.10;;
12202;SDS011;6164;42.178;24.622;2023-11-19T02:45:31;2.25;;;1.80;;
12202;SDS011;6164;42.178;24.622;2023-11-19T02:47:58;4.00;;;2.00;;
12202;SDS011;6164;42.178;24.622;2023-11-19T02:50:27;2.10;;;1.77;;
12202;SDS011;6164;42.178;24.622;2023-11-19T02:52:54;2.55;;;1.80;;
12202;SDS011;6164;42.178;24.622;2023-11-19T02:55:22;2.47;;;2.08;;
12202;SDS011;6164;42.178;24.622;2023-11-19T02:57:49;2.10;;;1.80;;
12202;SDS011;6164;42.178;24.622;2023-11-19T03:00:18;1.80;;;1.60;;
12202;SDS011;6164;42.178;24.622;2023-11-19T03:02:50;2.45;;;2.00;;
12202;SDS011;6164;42.178;24.622;2023-11-19T03:05:24;2.47;;;2.00;;
12202;SDS011;6164;42.178;24.622;2023-11-19T03:07:51;2.00;;;1.80;;
12202;SDS011;6164;42.178;24.622;2023-11-19T03:10:21;1.77;;;1.67;;
12202;SDS011;6164;42.178;24.622;2023-11-19T03:12:49;1.58;;;1.40;;
12202;SDS011;6164;42.178;24.622;2023-11-19T03:15:16;2.22;;;1.90;;
12202;SDS011;6164;42.178;24.622;2023-11-19T03:17:43;1.80;;;1.70;;
12202;SDS011;6164;42.178;24.622;2023-11-19T03:20:12;2.60;;;1.67;;
12202;SDS011;6164;42.178;24.622;2023-11-19T03:22:40;2.97;;;1.70;;
12202;SDS011;6164;42.178;24.622;2023-11-19T03:25:08;4.68;;;2.00;;
12202;SDS011;6164;42.178;24.622;2023-11-19T03:27:35;2.05;;;1.67;;
12202;SDS011;6164;42.178;24.622;2023-11-19T03:30:04;1.95;;;1.55;;
12202;SDS011;6164;42.178;24.622;2023-11-19T03:32:31;3.45;;;2.15;;
12202;SDS011;6164;42.178;24.622;2023-11-19T03:35:00;1.83;;;1.70;;
12202;SDS011;6164;42.178;24.622;2023-11-19T03:37:28;1.80;;;1.70;;
12202;SDS011;6164;42.178;24.622;2023-11-19T03:39:56;1.40;;;1.30;;
12202;SDS011;6164;42.178;24.622;2023-11-19T03:42:25;1.60;;;1.50;;
12202;SDS011;6164;42.178;24.622;2023-11-19T03:44:52;1.83;;;1.40;;
12202;SDS011;6164;42.178;24.622;2023-11-19T03:47:19;2.47;;;1.90;;
12202;SDS011;6164;42.178;24.622;2023-11-19T03:49:47;2.00;;;1.80;;
12202;SDS011;6164;42.178;24.622;2023-11-19T03:52:15;1.73;;;1.42;;
12202;SDS011;6164;42.178;24.622;2023-11-19T03:54:43;2.50;;;1.98;;
12202;SDS011;6164;42.178;24.622;2023-11-19T03:57:10;2.35;;;2.15;;
12202;SDS011;6164;42.178;24.622;2023-11-19T03:59:37;2.33;;;2.08;;
12202;SDS011;6164;42.178;24.622;2023-11-19T04:02:05;2.85;;;2.10;;
12202;SDS011;6164;42.178;24.622;2023-11-19T04:04:32;2.47;;;2.28;;
12202;SDS011;6164;42.178;24.622;2023-11-19T04:06:59;2.35;;;2.15;;
12202;SDS011;6164;42.178;24.622;2023-11-19T04:09:28;2.80;;;2.00;;
12202;SDS011;6164;42.178;24.622;2023-11-19T04:11:56;2.60;;;2.03;;
12202;SDS011;6164;42.178;24.622;2023-11-19T04:14:23;2.35;;;1.95;;
12202;SDS011;6164;42.178;24.622;2023-11-19T04:16:50;2.28;;;2.08;;
12202;SDS011;6164;42.178;24.622;2023-11-19T04:19:17;3.08;;;2.25;;
12202;SDS011;6164;42.178;24.622;2023-11-19T04:21:44;2.58;;;2.08;;
12202;SDS011;6164;42.178;24.622;2023-11-19T04:24:11;1.92;;;1.73;;
12202;SDS011;6164;42.178;24.622;2023-11-19T04:26:42;2.17;;;1.98;;
12202;SDS011;6164;42.178;24.622;2023-11-19T04:29:12;2.30;;;2.05;;
12202;SDS011;6164;42.178;24.622;2023-11-19T04:31:39;2.20;;;2.00;;
12202;SDS011;6164;42.178;24.622;2023-11-19T04:34:06;1.98;;;1.77;;
12202;SDS011;6164;42.178;24.622;2023-11-19T04:36:34;2.13;;;1.70;;
12202;SDS011;6164;42.178;24.622;2023-11-19T04:39:02;1.70;;;1.60;;
12202;SDS011;6164;42.178;24.622;2023-11-19T04:41:33;2.75;;;2.05;;
12202;SDS011;6164;42.178;24.622;2023-11-19T04:44:00;2.38;;;1.83;;
12202;SDS011;6164;42.178;24.622;2023-11-19T04:46:28;2.10;;;1.73;;
12202;SDS011;6164;42.178;24.622;2023-11-19T04:48:55;2.25;;;2.05;;
12202;SDS011;6164;42.178;24.622;2023-11-19T04:51:22;2.35;;;2.15;;
12202;SDS011;6164;42.178;24.622;2023-11-19T04:53:49;2.83;;;2.10;;
12202;SDS011;6164;42.178;24.622;2023-11-19T04:56:16;2.25;;;2.05;;
12202;SDS011;6164;42.178;24.622;2023-11-19T04:58:44;2.63;;;2.33;;
12202;SDS011;6164;42.178;24.622;2023-11-19T05:01:13;1.80;;;1.70;;
12202;SDS011;6164;42.178;24.622;2023-11-19T05:03:43;2.13;;;1.85;;
12202;SDS011;6164;42.178;24.622;2023-11-19T05:06:10;2.10;;;1.90;;
12202;SDS011;6164;42.178;24.622;2023-11-19T05:08:37;2.28;;;2.05;;
12202;SDS011;6164;42.178;24.622;2023-11-19T05:11:04;3.83;;;2.25;;
12202;SDS011;6164;42.178;24.622;2023-11-19T05:13:31;2.42;;;2.20;;
12202;SDS011;6164;42.178;24.622;2023-11-19T05:15:58;2.83;;;2.13;;
12202;SDS011;6164;42.178;24.622;2023-11-19T05:18:25;3.22;;;2.15;;
12202;SDS011;6164;42.178;24.622;2023-11-19T05:20:53;2.17;;;1.98;;
12202;SDS011;6164;42.178;24.622;2023-11-19T05:23:20;2.40;;;1.88;;
12202;SDS011;6164;42.178;24.622;2023-11-19T05:25:47;3.60;;;2.10;;
12202;SDS011;6164;42.178;24.622;2023-11-19T05:28:14;10.15;;;2.95;;
12202;SDS011;6164;42.178;24.622;2023-11-19T05:30:43;5.55;;;3.80;;
12202;SDS011;6164;42.178;24.622;2023-11-19T05:33:10;4.78;;;3.17;;
12202;SDS011;6164;42.178;24.622;2023-11-19T05:35:36;5.97;;;3.95;;
12202;SDS011;6164;42.178;24.622;2023-11-19T05:38:05;6.90;;;4.10;;
12202;SDS011;6164;42.178;24.622;2023-11-19T05:40:31;3.55;;;2.47;;
12202;SDS011;6164;42.178;24.622;2023-11-19T05:42:58;3.67;;;2.72;;
12202;SDS011;6164;42.178;24.622;2023-11-19T05:45:25;3.33;;;2.55;;
12202;SDS011;6164;42.178;24.622;2023-11-19T05:47:52;2.83;;;2.28;;
12202;SDS011;6164;42.178;24.622;2023-11-19T05:50:19;4.07;;;3.03;;
12202;SDS011;6164;42.178;24.622;2023-11-19T05:52:46;3.03;;;2.15;;
12202;SDS011;6164;42.178;24.622;2023-11-19T05:55:14;2.85;;;2.40;;
12202;SDS011;6164;42.178;24.622;2023-11-19T05:57:41;3.00;;;1.83;;
12202;SDS011;6164;42.178;24.622;2023-11-19T06:00:08;4.07;;;2.90;;
12202;SDS011;6164;42.178;24.622;2023-11-19T06:02:38;2.50;;;2.30;;
12202;SDS011;6164;42.178;24.622;2023-11-19T06:05:05;2.67;;;2.15;;
12202;SDS011;6164;42.178;24.622;2023-11-19T06:07:34;6.38;;;2.25;;
12202;SDS011;6164;42.178;24.622;2023-11-19T06:10:04;2.92;;;2.05;;
12202;SDS011;6164;42.178;24.622;2023-11-19T06:12:33;2.42;;;1.98;;
12202;SDS011;6164;42.178;24.622;2023-11-19T06:15:03;2.83;;;2.13;;
12202;SDS011;6164;42.178;24.622;2023-11-19T06:17:33;3.00;;;2.40;;
12202;SDS011;6164;42.178;24.622;2023-11-19T06:20:03;7.32;;;3.60;;
12202;SDS011;6164;42.178;24.622;2023-11-19T06:22:32;5.68;;;3.65;;
12202;SDS011;6164;42.178;24.622;2023-11-19T06:25:00;7.63;;;3.85;;
12202;SDS011;6164;42.178;24.622;2023-11-19T06:27:33;8.38;;;3.80;;
12202;SDS011;6164;42.178;24.622;2023-11-19T06:30:00;6.20;;;3.35;;
12202;SDS011;6164;42.178;24.622;2023-11-19T06:32:27;4.57;;;3.33;;
12202;SDS011;6164;42.178;24.622;2023-11-19T06:34:54;6.15;;;4.10;;
12202;SDS011;6164;42.178;24.622;2023-11-19T06:37:22;6.32;;;3.60;;
12202;SDS011;6164;42.178;24.622;2023-11-19T06:39:49;6.78;;;3.33;;
12202;SDS011;6164;42.178;24.622;2023-11-19T06:42:15;3.72;;;3.10;;
12202;SDS011;6164;42.178;24.622;2023-11-19T06:44:44;3.72;;;3.03;;
12202;SDS011;6164;42.178;24.622;2023-11-19T06:47:10;4.93;;;3.15;;
12202;SDS011;6164;42.178;24.622;2023-11-19T06:49:37;3.60;;;2.60;;
12202;SDS011;6164;42.178;24.622;2023-11-19T06:52:04;3.95;;;2.50;;
12202;SDS011;6164;42.178;24.622;2023-11-19T06:54:31;5.47;;;4.88;;
12202;SDS011;6164;42.178;24.622;2023-11-19T06:56:58;2.88;;;2.40;;
12202;SDS011;6164;42.178;24.622;2023-11-19T06:59:25;2.55;;;2.00;;
12202;SDS011;6164;42.178;24.622;2023-11-19T07:01:53;2.80;;;2.30;;
12202;SDS011;6164;42.178;24.622;2023-11-19T07:04:20;2.67;;;2.17;;
12202;SDS011;6164;42.178;24.622;2023-11-19T07:06:47;2.40;;;1.77;;
12202;SDS011;6164;42.178;24.622;2023-11-19T07:09:14;2.40;;;2.10;;
12202;SDS011;6164;42.178;24.622;2023-11-19T07:11:41;2.20;;;1.73;;
12202;SDS011;6164;42.178;24.622;2023-11-19T07:14:09;2.10;;;1.73;;
12202;SDS011;6164;42.178;24.622;2023-11-19T07:16:36;1.85;;;1.67;;
12202;SDS011;6164;42.178;24.622;2023-11-19T07:19:05;2.40;;;1.85;;
12202;SDS011;6164;42.178;24.622;2023-11-19T07:21:32;2.28;;;1.63;;
12202;SDS011;6164;42.178;24.622;2023-11-19T07:24:02;1.88;;;1.75;;
12202;SDS011;6164;42.178;24.622;2023-11-19T07:26:29;1.50;;;1.40;;
12202;SDS011;6164;42.178;24.622;2023-11-19T07:28:56;1.92;;;1.75;;
12202;SDS011;6164;42.178;24.622;2023-11-19T07:31:23;2.80;;;1.70;;
12202;SDS011;6164;42.178;24.622;2023-11-19T07:33:50;1.60;;;1.48;;
12202;SDS011;6164;42.178;24.622;2023-11-19T07:36:18;2.38;;;2.00;;
12202;SDS011;6164;42.178;24.622;2023-11-19T07:38:45;3.10;;;1.83;;
12202;SDS011;6164;42.178;24.622;2023-11-19T07:41:12;2.40;;;2.05;;
12202;SDS011;6164;42.178;24.622;2023-11-19T07:43:39;2.63;;;1.60;;
12202;SDS011;6164;42.178;24.622;2023-11-19T07:46:10;2.63;;;2.20;;
12202;SDS011;6164;42.178;24.622;2023-11-19T07:48:38;1.73;;;1.45;;
12202;SDS011;6164;42.178;24.622;2023-11-19T07:51:05;2.05;;;1.85;;
12202;SDS011;6164;42.178;24.622;2023-11-19T07:53:33;2.10;;;1.90;;
12202;SDS011;6164;42.178;24.622;2023-11-19T07:56:03;1.52;;;1.40;;
12202;SDS011;6164;42.178;24.622;2023-11-19T07:58:30;1.90;;;1.60;;
12202;SDS011;6164;42.178;24.622;2023-11-19T08:00:57;1.52;;;1.42;;
12202;SDS011;6164;42.178;24.622;2023-11-19T08:03:24;1.95;;;1.48;;
12202;SDS011;6164;42.178;24.622;2023-11-19T08:05:51;1.60;;;1.50;;
12202;SDS011;6164;42.178;24.622;2023-11-19T08:08:18;3.83;;;2.10;;
12202;SDS011;6164;42.178;24.622;2023-11-19T08:10:46;1.75;;;1.60;;
12202;SDS011;6164;42.178;24.622;2023-11-19T08:13:13;1.90;;;1.70;;
12202;SDS011;6164;42.178;24.622;2023-11-19T08:15:40;1.80;;;1.63;;
12202;SDS011;6164;42.178;24.622;2023-11-19T08:18:06;2.22;;;1.63;;
12202;SDS011;6164;42.178;24.622;2023-11-19T08:20:34;2.45;;;1.70;;
12202;SDS011;6164;42.178;24.622;2023-11-19T08:23:02;2.47;;;2.05;;
12202;SDS011;6164;42.178;24.622;2023-11-19T08:25:30;2.05;;;1.85;;
12202;SDS011;6164;42.178;24.622;2023-11-19T08:28:00;2.47;;;1.90;;
12202;SDS011;6164;42.178;24.622;2023-11-19T08:30:28;2.55;;;2.10;;
12202;SDS011;6164;42.178;24.622;2023-11-19T08:32:55;2.20;;;1.65;;
12202;SDS011;6164;42.178;24.622;2023-11-19T08:35:23;2.58;;;1.77;;
12202;SDS011;6164;42.178;24.622;2023-11-19T08:37:50;2.35;;;2.15;;
12202;SDS011;6164;42.178;24.622;2023-11-19T08:40:18;2.17;;;1.70;;
12202;SDS011;6164;42.178;24.622;2023-11-19T08:42:45;1.90;;;1.70;;
12202;SDS011;6164;42.178;24.622;2023-11-19T08:45:13;4.47;;;2.08;;
12202;SDS011;6164;42.178;24.622;2023-11-19T08:47:40;3.22;;;2.33;;
12202;SDS011;6164;42.178;24.622;2023-11-19T08:50:07;4.68;;;1.63;;
12202;SDS011;6164;42.178;24.622;2023-11-19T08:52:34;2.85;;;1.63;;
12202;SDS011;6164;42.178;24.622;2023-11-19T08:55:01;1.83;;;1.50;;
12202;SDS011;6164;42.178;24.622;2023-11-19T08:57:30;4.68;;;2.58;;
12202;SDS011;6164;42.178;24.622;2023-11-19T08:59:57;2.63;;;1.95;;
12202;SDS011;6164;42.178;24.622;2023-11-19T09:02:26;2.28;;;1.75;;
12202;SDS011;6164;42.178;24.622;2023-11-19T09:04:53;2.05;;;1.85;;
12202;SDS011;6164;42.178;24.622;2023-11-19T09:07:19;1.63;;;1.50;;
12202;SDS011;6164;42.178;24.622;2023-11-19T09:09:46;1.95;;;1.60;;
12202;SDS011;6164;42.178;24.622;2023-11-19T09:12:13;1.83;;;1.40;;
12202;SDS011;6164;42.178;24.622;2023-11-19T09:14:40;3.88;;;1.92;;
12202;SDS011;6164;42.178;24.622;2023-11-19T09:17:07;1.52;;;1.40;;
12202;SDS011;6164;42.178;24.622;2023-11-19T09:19:36;2.35;;;1.80;;
12202;SDS011;6164;42.178;24.622;2023-11-19T09:22:03;1.70;;;1.60;;
12202;SDS011;6164;42.178;24.622;2023-11-19T09:24:30;4.60;;;1.90;;
12202;SDS011;6164;42.178;24.622;2023-11-19T09:26:57;4.43;;;1.50;;
12202;SDS011;6164;42.178;24.622;2023-11-19T09:29:23;2.30;;;2.05;;
12202;SDS011;6164;42.178;24.622;2023-11-19T09:31:50;3.65;;;1.70;;
12202;SDS011;6164;42.178;24.622;2023-11-19T09:34:17;2.10;;;1.90;;
12202;SDS011;6164;42.178;24.622;2023-11-19T09:36:45;2.00;;;1.60;;
12202;SDS011;6164;42.178;24.622;2023-11-19T09:39:12;3.35;;;1.80;;
12202;SDS011;6164;42.178;24.622;2023-11-19T09:41:42;2.22;;;1.70;;
12202;SDS011;6164;42.178;24.622;2023-11-19T09:44:10;1.70;;;1.60;;
12202;SDS011;6164;42.178;24.622;2023-11-19T09:46:37;1.70;;;1.60;;
12202;SDS011;6164;42.178;24.622;2023-11-19T09:49:05;2.83;;;1.75;;
12202;SDS011;6164;42.178;24.622;2023-11-19T09:51:34;2.05;;;1.52;;
12202;SDS011;6164;42.178;24.622;2023-11-19T09:54:02;2.13;;;1.92;;
12202;SDS011;6164;42.178;24.622;2023-11-19T09:56:29;2.65;;;1.80;;
12202;SDS011;6164;42.178;24.622;2023-11-19T09:58:57;3.17;;;2.00;;
12202;SDS011;6164;42.178;24.622;2023-11-19T10:01:23;1.85;;;1.70;;
12202;SDS011;6164;42.178;24.622;2023-11-19T10:03:51;2.40;;;1.90;;
12202;SDS011;6164;42.178;24.622;2023-11-19T10:06:22;1.50;;;1.40;;
12202;SDS011;6164;42.178;24.622;2023-11-19T10:08:52;2.38;;;2.08;;
12202;SDS011;6164;42.178;24.622;2023-11-19T10:11:20;1.70;;;1.58;;
12202;SDS011;6164;42.178;24.622;2023-11-19T10:13:47;1.88;;;1.67;;
12202;SDS011;6164;42.178;24.622;2023-11-19T10:16:15;1.67;;;1.58;;
12202;SDS011;6164;42.178;24.622;2023-11-19T10:18:43;2.78;;;2.45;;
12202;SDS011;6164;42.178;24.622;2023-11-19T10:21:12;1.73;;;1.55;;
12202;SDS011;6164;42.178;24.622;2023-11-19T10:23:48;2.42;;;2.20;;
12202;SDS011;6164;42.178;24.622;2023-11-19T10:26:17;1.70;;;1.50;;
12202;SDS011;6164;42.178;24.622;2023-11-19T10:28:45;2.30;;;1.77;;
12202;SDS011;6164;42.178;24.622;2023-11-19T10:31:12;2.15;;;1.85;;
12202;SDS011;6164;42.178;24.622;2023-11-19T10:33:39;2.10;;;1.63;;
12202;SDS011;6164;42.178;24.622;2023-11-19T10:36:10;2.97;;;2.15;;
12202;SDS011;6164;42.178;24.622;2023-11-19T10:38:38;2.13;;;1.90;;
12202;SDS011;6164;42.178;24.622;2023-11-19T10:41:05;2.20;;;2.00;;
12202;SDS011;6164;42.178;24.622;2023-11-19T10:43:42;3.75;;;2.13;;
12202;SDS011;6164;42.178;24.622;2023-11-19T10:46:15;2.22;;;2.00;;
12202;SDS011;6164;42.178;24.622;2023-11-19T10:48:46;2.72;;;2.10;;
12202;SDS011;6164;42.178;24.622;2023-11-19T10:51:12;3.22;;;2.15;;
12202;SDS011;6164;42.178;24.622;2023-11-19T10:53:46;2.30;;;2.10;;
12202;SDS011;6164;42.178;24.622;2023-11-19T10:56:16;3.03;;;2.30;;
12202;SDS011;6164;42.178;24.622;2023-11-19T10:58:45;1.95;;;1.75;;
12202;SDS011;6164;42.178;24.622;2023-11-19T11:01:13;1.98;;;1.80;;
12202;SDS011;6164;42.178;24.622;2023-11-19T11:03:46;3.90;;;1.70;;
12202;SDS011;6164;42.178;24.622;2023-11-19T11:06:14;3.30;;;2.63;;
12202;SDS011;6164;42.178;24.622;2023-11-19T11:08:41;1.67;;;1.58;;
12202;SDS011;6164;42.178;24.622;2023-11-19T11:11:09;1.50;;;1.38;;
12202;SDS011;6164;42.178;24.622;2023-11-19T11:13:40;1.90;;;1.70;;
12202;SDS011;6164;42.178;24.622;2023-11-19T11:16:12;2.75;;;1.67;;
12202;SDS011;6164;42.178;24.622;2023-11-19T11:18:41;2.35;;;1.88;;
12202;SDS011;6164;42.178;24.622;2023-11-19T11:21:08;2.55;;;1.33;;
12202;SDS011;6164;42.178;24.622;2023-11-19T11:23:42;2.42;;;1.95;;
12202;SDS011;6164;42.178;24.622;2023-11-19T11:26:42;2.17;;;1.77;;
12202;SDS011;6164;42.178;24.622;2023-11-19T11:29:30;2.28;;;1.98;;
12202;SDS011;6164;42.178;24.622;2023-11-19T11:32:16;2.22;;;2.00;;
12202;SDS011;6164;42.178;24.622;2023-11-19T11:35:01;2.28;;;2.00;;
12202;SDS011;6164;42.178;24.622;2023-11-19T11:37:43;1.88;;;1.67;;
12202;SDS011;6164;42.178;24.622;2023-11-19T11:40:13;2.22;;;1.80;;
12202;SDS011;6164;42.178;24.622;2023-11-19T11:42:41;1.98;;;1.77;;
12202;SDS011;6164;42.178;24.622;2023-11-19T11:45:08;2.00;;;1.80;;
12202;SDS011;6164;42.178;24.622;2023-11-19T11:53:30;1.65;;;1.55;;
12202;SDS011;6164;42.178;24.622;2023-11-19T11:56:01;3.58;;;1.80;;
12202;SDS011;6164;42.178;24.622;2023-11-19T11:58:29;2.58;;;1.88;;
12202;SDS011;6164;42.178;24.622;2023-11-19T12:01:03;4.93;;;1.85;;
12202;SDS011;6164;42.178;24.622;2023-11-19T12:03:32;3.65;;;1.77;;
12202;SDS011;6164;42.178;24.622;2023-11-19T12:05:59;2.10;;;1.90;;
12202;SDS011;6164;42.178;24.622;2023-11-19T12:08:28;3.10;;;2.10;;
12202;SDS011;6164;42.178;24.622;2023-11-19T12:10:56;3.30;;;2.00;;
12202;SDS011;6164;42.178;24.622;2023-11-19T12:13:25;2.70;;;2.20;;
12202;SDS011;6164;42.178;24.622;2023-11-19T12:16:12;1.92;;;1.73;;
12202;SDS011;6164;42.178;24.622;2023-11-19T12:18:40;3.03;;;1.85;;
12202;SDS011;6164;42.178;24.622;2023-11-19T12:21:08;1.90;;;1.70;;
12202;SDS011;6164;42.178;24.622;2023-11-19T12:23:43;3.58;;;2.35;;
12202;SDS011;6164;42.178;24.622;2023-11-19T12:26:30;2.53;;;2.15;;
12202;SDS011;6164;42.178;24.622;2023-11-19T12:28:59;3.30;;;2.60;;
12202;SDS011;6164;42.178;24.622;2023-11-19T12:31:28;3.00;;;2.10;;
12202;SDS011;6164;42.178;24.622;2023-11-19T12:33:55;3.72;;;2.28;;
12202;SDS011;6164;42.178;24.622;2023-11-19T12:36:22;3.00;;;2.40;;
12202;SDS011;6164;42.178;24.622;2023-11-19T12:38:51;2.28;;;1.85;;
12202;SDS011;6164;42.178;24.622;2023-11-19T12:41:17;2.65;;;2.25;;
12202;SDS011;6164;42.178;24.622;2023-11-19T12:43:48;10.50;;;7.35;;
12202;SDS011;6164;42.178;24.622;2023-11-19T12:46:19;2.30;;;2.05;;
12202;SDS011;6164;42.178;24.622;2023-11-19T12:48:47;3.13;;;2.00;;
12202;SDS011;6164;42.178;24.622;2023-11-19T12:51:14;2.15;;;1.70;;
12202;SDS011;6164;42.178;24.622;2023-11-19T12:53:48;2.35;;;2.15;;
12202;SDS011;6164;42.178;24.622;2023-11-19T12:56:17;2.95;;;2.30;;
12202;SDS011;6164;42.178;24.622;2023-11-19T12:58:44;2.20;;;2.00;;
12202;SDS011;6164;42.178;24.622;2023-11-19T13:01:15;2.50;;;2.30;;
12202;SDS011;6164;42.178;24.622;2023-11-19T13:03:43;3.22;;;2.50;;
12202;SDS011;6164;42.178;24.622;2023-11-19T13:06:10;3.33;;;2.08;;
12202;SDS011;6164;42.178;24.622;2023-11-19T13:08:38;4.28;;;3.15;;
12202;SDS011;6164;42.178;24.622;2023-11-19T13:11:06;3.10;;;2.70;;
12202;SDS011;6164;42.178;24.622;2023-11-19T13:16:24;2.30;;;2.10;;
12202;SDS011;6164;42.178;24.622;2023-11-19T13:18:51;2.30;;;1.88;;
12202;SDS011;6164;42.178;24.622;2023-11-19T13:21:18;3.58;;;2.15;;
12202;SDS011;6164;42.178;24.622;2023-11-19T13:23:45;1.92;;;1.70;;
12202;SDS011;6164;42.178;24.622;2023-11-19T13:26:12;2.38;;;1.83;;
12202;SDS011;6164;42.178;24.622;2023-11-19T13:28:39;3.92;;;2.10;;
12202;SDS011;6164;42.178;24.622;2023-11-19T13:31:07;2.25;;;2.05;;
12202;SDS011;6164;42.178;24.622;2023-11-19T13:33:35;2.65;;;1.77;;
12202;SDS011;6164;42.178;24.622;2023-11-19T13:36:02;2.50;;;2.30;;
12202;SDS011;6164;42.178;24.622;2023-11-19T13:38:31;4.13;;;2.10;;
12202;SDS011;6164;42.178;24.622;2023-11-19T13:40:58;4.13;;;2.50;;
12202;SDS011;6164;42.178;24.622;2023-11-19T13:43:25;2.45;;;2.20;;
12202;SDS011;6164;42.178;24.622;2023-11-19T13:45:53;2.97;;;2.50;;
12202;SDS011;6164;42.178;24.622;2023-11-19T13:48:21;2.45;;;2.17;;
12202;SDS011;6164;42.178;24.622;2023-11-19T13:50:48;2.40;;;2.20;;
12202;SDS011;6164;42.178;24.622;2023-11-19T13:53:15;4.15;;;2.50;;
12202;SDS011;6164;42.178;24.622;2023-11-19T13:55:42;3.03;;;2.15;;
12202;SDS011;6164;42.178;24.622;2023-11-19T13:58:09;2.90;;;2.20;;
12202;SDS011;6164;42.178;24.622;2023-11-19T14:00:36;2.90;;;2.60;;
12202;SDS011;6164;42.178;24.622;2023-11-19T14:03:03;2.63;;;2.22;;
12202;SDS011;6164;42.178;24.622;2023-11-19T14:05:31;2.85;;;2.58;;
12202;SDS011;6164;42.178;24.622;2023-11-19T14:07:58;3.35;;;2.03;;
12202;SDS011;6164;42.178;24.622;2023-11-19T14:10:26;3.08;;;2.75;;
12202;SDS011;6164;42.178;24.622;2023-11-19T14:12:53;4.05;;;2.22;;
12202;SDS011;6164;42.178;24.622;2023-11-19T14:15:20;2.85;;;2.45;;
12202;SDS011;6164;42.178;24.622;2023-11-19T14:17:47;3.63;;;2.70;;
12202;SDS011;6164;42.178;24.622;2023-11-19T14:20:14;5.05;;;2.50;;
12202;SDS011;6164;42.178;24.622;2023-11-19T14:22:44;3.30;;;2.85;;
12202;SDS011;6164;42.178;24.622;2023-11-19T14:25:13;5.75;;;2.90;;
12202;SDS011;6164;42.178;24.622;2023-11-19T14:27:40;4.72;;;2.70;;
12202;SDS011;6164;42.178;24.622;2023-11-19T14:30:08;3.58;;;2.60;;
12202;SDS011;6164;42.178;24.622;2023-11-19T14:32:38;3.67;;;3.20;;
12202;SDS011;6164;42.178;24.622;2023-11-19T14:35:07;5.78;;;4.28;;
12202;SDS011;6164;42.178;24.622;2023-11-19T14:37:34;7.15;;;3.90;;
12202;SDS011;6164;42.178;24.622;2023-11-19T14:40:03;3.80;;;2.83;;
12202;SDS011;6164;42.178;24.622;2023-11-19T14:42:31;3.33;;;2.72;;
12202;SDS011;6164;42.178;24.622;2023-11-19T14:44:58;2.78;;;2.58;;
12202;SDS011;6164;42.178;24.622;2023-11-19T14:47:25;2.92;;;2.20;;
12202;SDS011;6164;42.178;24.622;2023-11-19T14:49:51;2.95;;;2.58;;
12202;SDS011;6164;42.178;24.622;2023-11-19T14:52:18;3.15;;;2.38;;
12202;SDS011;6164;42.178;24.622;2023-11-19T14:54:45;6.07;;;4.78;;
12202;SDS011;6164;42.178;24.622;2023-11-19T14:57:13;16.52;;;6.70;;
12202;SDS011;6164;42.178;24.622;2023-11-19T14:59:40;10.40;;;6.78;;
12202;SDS011;6164;42.178;24.622;2023-11-19T15:02:07;5.32;;;3.70;;
12202;SDS011;6164;42.178;24.622;2023-11-19T15:04:34;6.57;;;4.55;;
12202;SDS011;6164;42.178;24.622;2023-11-19T15:07:01;9.77;;;4.70;;
12202;SDS011;6164;42.178;24.622;2023-11-19T15:09:29;4.70;;;3.33;;
12202;SDS011;6164;42.178;24.622;2023-11-19T15:11:57;6.95;;;4.28;;
12202;SDS011;6164;42.178;24.622;2023-11-19T15:14:26;16.38;;;8.85;;
12202;SDS011;6164;42.178;24.622;2023-11-19T15:16:54;9.23;;;5.82;;
12202;SDS011;6164;42.178;24.622;2023-11-19T15:19:21;18.27;;;9.07;;
12202;SDS011;6164;42.178;24.622;2023-11-19T15:21:48;17.77;;;8.75;;
12202;SDS011;6164;42.178;24.622;2023-11-19T15:24:15;19.25;;;9.68;;
12202;SDS011;6164;42.178;24.622;2023-11-19T15:26:42;18.70;;;12.05;;
12202;SDS011;6164;42.178;24.622;2023-11-19T15:29:09;19.25;;;7.55;;
12202;SDS011;6164;42.178;24.622;2023-11-19T15:31:38;11.65;;;5.95;;
12202;SDS011;6164;42.178;24.622;2023-11-19T15:34:05;9.70;;;5.50;;
12202;SDS011;6164;42.178;24.622;2023-11-19T15:36:32;8.80;;;5.50;;
12202;SDS011;6164;42.178;24.622;2023-11-19T15:39:01;7.28;;;5.40;;